Time;durP1;ratioP1;P1;durP2;ratioP2;P2;SDS_P1;SDS_P2;PMS_P1;PMS_P2;Temp;Humidity;BMP_temperature;BMP_pressure;BME280_temperature;BME280_humidity;BME280_pressure;Samples;Min_cycle;Max_cycle;Signal;HPM_P1;HPM_P2
2023/04/17 00:01:31;;;;;;;3.60;2.47;;;;;;;;;;5109835;28;20207;-81
2023/04/17 00:03:58;;;;;;;3.07;2.20;;;;;;;;;;5111111;28;20754;-81
2023/04/17 00:06:26;;;;;;;2.70;2.50;;;;;;;;;;5091833;28;20273;-80
2023/04/17 00:08:52;;;;;;;3.97;2.80;;;;;;;;;;5103789;28;20195;-81
2023/04/17 00:11:20;;;;;;;4.23;2.87;;;;;;;;;;5091707;28;20605;-81
2023/04/17 00:13:48;;;;;;;2.47;2.27;;;;;;;;;;5092377;28;20211;-81
2023/04/17 00:16:14;;;;;;;2.83;2.27;;;;;;;;;;5094106;28;20204;-81
2023/04/17 00:18:41;;;;;;;2.37;2.07;;;;;;;;;;5108058;28;20645;-81
2023/04/17 00:21:08;;;;;;;4.03;2.30;;;;;;;;;;5108163;28;20211;-81
2023/04/17 00:23:35;;;;;;;3.33;2.40;;;;;;;;;;5107886;28;20192;-81
2023/04/17 00:26:02;;;;;;;3.23;2.50;;;;;;;;;;5114522;28;20199;-83
2023/04/17 00:28:29;;;;;;;4.00;2.30;;;;;;;;;;5115113;28;20196;-82
2023/04/17 00:30:57;;;;;;;2.60;2.07;;;;;;;;;;5094441;28;20687;-82
2023/04/17 00:33:24;;;;;;;4.57;2.67;;;;;;;;;;5094851;28;20257;-81
2023/04/17 00:35:51;;;;;;;2.77;2.50;;;;;;;;;;5088549;28;20689;-82
2023/04/17 00:38:18;;;;;;;3.77;2.90;;;;;;;;;;5095089;28;20567;-82
2023/04/17 00:40:45;;;;;;;5.27;3.17;;;;;;;;;;5106450;28;20199;-80
2023/04/17 00:43:11;;;;;;;2.73;2.30;;;;;;;;;;5107658;28;20290;-79
2023/04/17 00:45:39;;;;;;;6.40;2.90;;;;;;;;;;5093509;28;20708;-82
2023/04/17 00:48:08;;;;;;;2.53;2.33;;;;;;;;;;5109334;28;20266;-82
2023/04/17 00:50:35;;;;;;;5.60;2.70;;;;;;;;;;5105352;28;20265;-82
2023/04/17 00:53:02;;;;;;;4.90;2.97;;;;;;;;;;5106723;28;20261;-81
2023/04/17 00:55:31;;;;;;;2.53;2.30;;;;;;;;;;5094195;28;20204;-81
2023/04/17 00:57:58;;;;;;;4.33;3.03;;;;;;;;;;5107205;28;20227;-81
2023/04/17 01:00:25;;;;;;;4.10;2.73;;;;;;;;;;5103469;28;20631;-81
2023/04/17 01:02:52;;;;;;;3.77;2.77;;;;;;;;;;5100024;28;20200;-82
2023/04/17 01:05:20;;;;;;;4.80;3.20;;;;;;;;;;5113734;28;20231;-81
2023/04/17 01:07:47;;;;;;;6.40;2.93;;;;;;;;;;5099867;28;20200;-82
2023/04/17 01:10:13;;;;;;;3.50;2.90;;;;;;;;;;5108641;28;20300;-81
2023/04/17 01:12:45;;;;;;;3.63;3.00;;;;;;;;;;5096764;28;20208;-81
2023/04/17 01:15:12;;;;;;;4.20;3.13;;;;;;;;;;5104346;28;20215;-81
2023/04/17 01:17:38;;;;;;;6.40;3.17;;;;;;;;;;5113702;28;20196;-81
2023/04/17 01:20:07;;;;;;;4.47;2.80;;;;;;;;;;5102727;28;20200;-81
2023/04/17 01:22:35;;;;;;;4.87;3.40;;;;;;;;;;5106709;28;20197;-81
2023/04/17 01:25:04;;;;;;;4.30;3.30;;;;;;;;;;5092285;28;20223;-82
2023/04/17 01:27:31;;;;;;;3.83;2.90;;;;;;;;;;5105396;28;20663;-81
2023/04/17 01:29:58;;;;;;;4.13;3.37;;;;;;;;;;5093139;28;20196;-81
2023/04/17 01:32:25;;;;;;;5.63;3.70;;;;;;;;;;5111172;28;20196;-81
2023/04/17 01:34:51;;;;;;;4.50;2.73;;;;;;;;;;5101281;28;20357;-81
2023/04/17 01:37:18;;;;;;;4.03;3.20;;;;;;;;;;5111619;28;20200;-81
2023/04/17 01:39:45;;;;;;;7.23;3.07;;;;;;;;;;5114215;28;20217;-81
2023/04/17 01:42:13;;;;;;;4.73;3.23;;;;;;;;;;5094159;28;20212;-81
2023/04/17 01:44:40;;;;;;;3.10;2.90;;;;;;;;;;5092374;28;20284;-81
2023/04/17 01:47:06;;;;;;;5.53;3.50;;;;;;;;;;5098770;28;20344;-81
2023/04/17 01:49:33;;;;;;;3.93;2.83;;;;;;;;;;5113278;28;20200;-81
2023/04/17 01:52:00;;;;;;;5.17;3.77;;;;;;;;;;5105833;28;20192;-81
2023/04/17 01:54:27;;;;;;;3.40;3.07;;;;;;;;;;5106082;28;20204;-81
2023/04/17 01:56:53;;;;;;;3.77;2.90;;;;;;;;;;5106331;28;20207;-81
2023/04/17 01:59:21;;;;;;;4.67;2.97;;;;;;;;;;5106047;28;20199;-81
2023/04/17 02:01:49;;;;;;;3.23;2.93;;;;;;;;;;5092676;28;20208;-84
2023/04/17 02:04:16;;;;;;;6.87;3.37;;;;;;;;;;5105662;28;20199;-81
2023/04/17 02:06:43;;;;;;;6.07;2.93;;;;;;;;;;5092116;28;20200;-81
2023/04/17 02:09:09;;;;;;;4.03;2.70;;;;;;;;;;5092158;28;20204;-79
2023/04/17 02:11:36;;;;;;;5.47;3.40;;;;;;;;;;5099639;28;20769;-79
2023/04/17 02:14:05;;;;;;;4.90;4.33;;;;;;;;;;5112021;28;20678;-79
2023/04/17 02:16:33;;;;;;;6.73;4.87;;;;;;;;;;5112337;28;20257;-79
2023/04/17 02:19:00;;;;;;;4.30;3.80;;;;;;;;;;5112259;28;20210;-81
2023/04/17 02:21:27;;;;;;;6.63;4.17;;;;;;;;;;5112877;28;20195;-82
2023/04/17 02:23:54;;;;;;;5.17;3.63;;;;;;;;;;5098383;28;20200;-81
2023/04/17 02:26:20;;;;;;;5.27;3.70;;;;;;;;;;5103598;28;20736;-82
2023/04/17 02:28:47;;;;;;;4.87;4.10;;;;;;;;;;5105889;28;20203;-82
2023/04/17 02:31:15;;;;;;;4.27;3.93;;;;;;;;;;5100184;28;20682;-82
2023/04/17 02:33:43;;;;;;;4.60;4.20;;;;;;;;;;5111720;28;20203;-81
2023/04/17 02:36:10;;;;;;;6.10;4.63;;;;;;;;;;5112138;28;20204;-79
2023/04/17 02:38:36;;;;;;;4.70;4.23;;;;;;;;;;5111865;28;20196;-79
2023/04/17 02:41:03;;;;;;;5.83;4.17;;;;;;;;;;5102089;28;20200;-79
2023/04/17 02:43:30;;;;;;;5.97;5.37;;;;;;;;;;5091635;28;20197;-79
2023/04/17 02:45:57;;;;;;;4.53;3.63;;;;;;;;;;5091673;28;20675;-80
2023/04/17 02:48:23;;;;;;;3.27;2.97;;;;;;;;;;5095303;28;20696;-80
2023/04/17 02:50:51;;;;;;;8.43;3.83;;;;;;;;;;5101038;28;20204;-79
2023/04/17 02:53:18;;;;;;;4.80;4.40;;;;;;;;;;5095730;28;20196;-79
2023/04/17 02:55:45;;;;;;;5.47;4.37;;;;;;;;;;5111659;28;20592;-79
2023/04/17 02:58:12;;;;;;;7.27;4.10;;;;;;;;;;5093737;28;20204;-79
2023/04/17 03:00:39;;;;;;;4.87;4.23;;;;;;;;;;5101561;28;20207;-81
2023/04/17 03:03:26;;;;;;;4.77;4.23;;;;;;;;;;5098046;28;20214;-80
2023/04/17 03:05:55;;;;;;;4.87;4.47;;;;;;;;;;5097721;28;20307;-80
2023/04/17 03:25:25;;;;;;;7.07;5.03;;;;;;;;;;5088284;27;20951;-82
2023/04/17 03:27:52;;;;;;;5.93;5.23;;;;;;;;;;5074649;28;20205;-81
2023/04/17 03:30:19;;;;;;;5.47;4.83;;;;;;;;;;5088436;28;20216;-82
2023/04/17 03:32:46;;;;;;;5.50;4.93;;;;;;;;;;5088046;28;20691;-81
2023/04/17 03:35:12;;;;;;;8.77;4.67;;;;;;;;;;5079933;28;20209;-81
2023/04/17 03:37:39;;;;;;;4.40;4.00;;;;;;;;;;5083236;28;20630;-81
2023/04/17 03:40:07;;;;;;;5.93;5.20;;;;;;;;;;5079464;28;20209;-82
2023/04/17 03:42:36;;;;;;;5.57;4.03;;;;;;;;;;5084089;28;20204;-82
2023/04/17 03:45:03;;;;;;;6.93;4.40;;;;;;;;;;5078565;28;20635;-84
2023/04/17 03:47:30;;;;;;;5.83;4.83;;;;;;;;;;5067741;28;20206;-81
2023/04/17 03:49:56;;;;;;;5.40;4.70;;;;;;;;;;5081131;28;20292;-82
2023/04/17 03:52:23;;;;;;;5.53;4.97;;;;;;;;;;5077308;28;20232;-81
2023/04/17 03:54:50;;;;;;;6.70;5.57;;;;;;;;;;5084648;28;20225;-81
2023/04/17 03:57:17;;;;;;;11.93;7.97;;;;;;;;;;5077771;28;20205;-82
2023/04/17 03:59:45;;;;;;;6.50;5.73;;;;;;;;;;5088044;28;20205;-82
2023/04/17 04:02:12;;;;;;;5.07;4.53;;;;;;;;;;5087724;28;20269;-82
2023/04/17 04:04:39;;;;;;;6.47;4.60;;;;;;;;;;5083584;28;20213;-82
2023/04/17 04:07:06;;;;;;;6.57;5.97;;;;;;;;;;5078125;28;20243;-82
2023/04/17 04:09:32;;;;;;;9.50;5.97;;;;;;;;;;5087431;28;20678;-80
2023/04/17 04:11:59;;;;;;;7.10;5.13;;;;;;;;;;5072929;28;20205;-82
2023/04/17 04:14:26;;;;;;;5.67;5.17;;;;;;;;;;5087714;28;20229;-82
2023/04/17 04:16:54;;;;;;;7.13;5.47;;;;;;;;;;5073479;28;20754;-81
2023/04/17 04:19:21;;;;;;;5.97;4.93;;;;;;;;;;5078009;28;20745;-81
2023/04/17 04:21:48;;;;;;;7.47;5.70;;;;;;;;;;5069861;28;20261;-81
2023/04/17 04:24:15;;;;;;;7.07;5.03;;;;;;;;;;5071780;28;20229;-81
2023/04/17 04:26:42;;;;;;;6.50;5.07;;;;;;;;;;5062804;28;20692;-81
2023/04/17 04:29:12;;;;;;;4.27;3.97;;;;;;;;;;5071551;28;20620;-81
2023/04/17 04:31:39;;;;;;;5.50;5.03;;;;;;;;;;5073817;28;20216;-81
2023/04/17 04:34:07;;;;;;;5.30;4.80;;;;;;;;;;5059914;28;20734;-81
2023/04/17 04:36:35;;;;;;;5.13;4.50;;;;;;;;;;5061421;28;20210;-88
2023/04/17 04:39:04;;;;;;;4.30;4.00;;;;;;;;;;5073155;28;20697;-80
2023/04/17 04:41:32;;;;;;;4.60;4.20;;;;;;;;;;5060443;28;20226;-81
2023/04/17 04:43:59;;;;;;;5.30;4.80;;;;;;;;;;5040610;28;20216;-81
2023/04/17 04:46:26;;;;;;;4.97;4.47;;;;;;;;;;5066852;28;20213;-83
2023/04/17 04:48:52;;;;;;;5.23;4.57;;;;;;;;;;5066209;28;20626;-81
2023/04/17 04:51:21;;;;;;;5.53;5.03;;;;;;;;;;5066780;28;20212;-81
2023/04/17 04:53:47;;;;;;;8.87;7.67;;;;;;;;;;5054271;28;20745;-82
2023/04/17 04:56:14;;;;;;;6.17;5.37;;;;;;;;;;5065414;28;20273;-82
2023/04/17 04:58:41;;;;;;;6.40;5.70;;;;;;;;;;5042106;28;20677;-82
2023/04/17 05:01:08;;;;;;;14.10;11.83;;;;;;;;;;5065951;28;20197;-83
2023/04/17 05:03:37;;;;;;;17.33;15.73;;;;;;;;;;5064858;28;20201;-82
2023/04/17 05:06:04;;;;;;;23.33;21.33;;;;;;;;;;5048437;28;20236;-81
2023/04/17 05:08:32;;;;;;;9.93;8.93;;;;;;;;;;5072702;28;20204;-81
2023/04/17 05:10:59;;;;;;;11.07;9.20;;;;;;;;;;5065221;28;20202;-80
2023/04/17 05:13:26;;;;;;;7.70;7.00;;;;;;;;;;5052803;28;20718;-80
2023/04/17 05:15:53;;;;;;;5.97;5.37;;;;;;;;;;5061134;28;20212;-81
2023/04/17 05:18:19;;;;;;;5.37;4.93;;;;;;;;;;5071504;28;20270;-81
2023/04/17 05:20:46;;;;;;;5.17;4.67;;;;;;;;;;5053159;28;20213;-81
2023/04/17 05:23:13;;;;;;;6.20;5.60;;;;;;;;;;5059349;28;20206;-81
2023/04/17 05:25:41;;;;;;;6.83;6.13;;;;;;;;;;5067808;28;20205;-82
2023/04/17 05:28:08;;;;;;;8.57;6.63;;;;;;;;;;5059072;28;20256;-83
2023/04/17 05:30:35;;;;;;;9.27;7.07;;;;;;;;;;5057453;28;20206;-82
2023/04/17 05:33:02;;;;;;;4.73;3.90;;;;;;;;;;5068642;28;20205;-82
2023/04/17 05:35:28;;;;;;;5.70;5.20;;;;;;;;;;5063593;28;20236;-81
2023/04/17 05:37:55;;;;;;;9.03;4.97;;;;;;;;;;5069537;28;20209;-82
2023/04/17 05:40:22;;;;;;;5.30;4.53;;;;;;;;;;5052379;28;20229;-82
2023/04/17 05:42:50;;;;;;;6.93;4.83;;;;;;;;;;5055790;28;20201;-82
2023/04/17 05:45:18;;;;;;;5.57;4.90;;;;;;;;;;5061611;28;20217;-82
2023/04/17 05:47:47;;;;;;;5.33;4.50;;;;;;;;;;5056129;28;20297;-82
2023/04/17 05:50:14;;;;;;;6.60;5.10;;;;;;;;;;5064216;28;20210;-82
2023/04/17 05:52:41;;;;;;;4.67;4.27;;;;;;;;;;5066444;28;20292;-82
2023/04/17 05:55:09;;;;;;;5.50;4.57;;;;;;;;;;5064241;28;20229;-84
2023/04/17 05:57:35;;;;;;;4.17;3.87;;;;;;;;;;5053698;28;20212;-81
2023/04/17 06:00:09;;;;;;;4.90;4.17;;;;;;;;;;5071659;28;20204;-80
2023/04/17 06:02:37;;;;;;;4.50;4.10;;;;;;;;;;5069120;28;20202;-81
2023/04/17 06:05:05;;;;;;;6.23;5.63;;;;;;;;;;5068054;28;20793;-81
2023/04/17 06:07:33;;;;;;;6.57;5.97;;;;;;;;;;5062083;28;20198;-82
2023/04/17 06:10:00;;;;;;;12.37;11.27;;;;;;;;;;5054895;28;20209;-81
2023/04/17 06:12:27;;;;;;;6.70;6.10;;;;;;;;;;5062241;28;20283;-81
2023/04/17 06:14:55;;;;;;;7.13;6.53;;;;;;;;;;5064656;28;20261;-81
2023/04/17 06:17:23;;;;;;;6.20;5.70;;;;;;;;;;5051947;28;20244;-82
2023/04/17 06:19:49;;;;;;;7.90;6.83;;;;;;;;;;5068767;28;20706;-81
2023/04/17 06:22:16;;;;;;;10.23;8.47;;;;;;;;;;5060855;28;20206;-82
2023/04/17 06:24:43;;;;;;;36.00;21.43;;;;;;;;;;5069177;28;20236;-82
2023/04/17 06:27:10;;;;;;;17.47;11.30;;;;;;;;;;5071359;28;20205;-82
2023/04/17 06:29:36;;;;;;;15.07;10.93;;;;;;;;;;5067219;28;20214;-81
2023/04/17 06:32:05;;;;;;;43.47;26.07;;;;;;;;;;5051587;28;20210;-82
2023/04/17 06:34:34;;;;;;;29.73;16.00;;;;;;;;;;5042943;28;20312;-81
2023/04/17 06:37:01;;;;;;;14.53;9.40;;;;;;;;;;5071229;28;20588;-81
2023/04/17 06:39:28;;;;;;;9.87;6.87;;;;;;;;;;5052621;28;20639;-81
2023/04/17 06:41:55;;;;;;;17.10;13.17;;;;;;;;;;5051423;28;20289;-81
2023/04/17 06:44:22;;;;;;;14.00;12.50;;;;;;;;;;5064599;28;20702;-81
2023/04/17 06:46:52;;;;;;;13.73;10.83;;;;;;;;;;5063400;28;20212;-81
2023/04/17 06:49:19;;;;;;;13.90;12.03;;;;;;;;;;5071258;28;20288;-81
2023/04/17 06:51:49;;;;;;;11.77;10.53;;;;;;;;;;5058324;28;20206;-81
2023/04/17 06:54:15;;;;;;;5.93;5.00;;;;;;;;;;5044720;28;20638;-81
2023/04/17 06:56:42;;;;;;;10.63;9.23;;;;;;;;;;5057744;28;20213;-82
2023/04/17 06:59:09;;;;;;;4.87;4.37;;;;;;;;;;5064034;28;20580;-81
2023/04/17 07:01:36;;;;;;;4.40;4.00;;;;;;;;;;5064958;28;20254;-81
2023/04/17 07:04:04;;;;;;;3.70;3.37;;;;;;;;;;5052692;28;20208;-89
2023/04/17 07:06:32;;;;;;;4.00;3.70;;;;;;;;;;5062846;28;20240;-84
2023/04/17 07:09:01;;;;;;;4.83;4.00;;;;;;;;;;5063198;28;20592;-81
2023/04/17 07:11:28;;;;;;;4.67;3.63;;;;;;;;;;5051541;28;20213;-81
2023/04/17 07:13:54;;;;;;;3.50;3.10;;;;;;;;;;5064116;28;20213;-81
2023/04/17 07:16:22;;;;;;;4.07;3.77;;;;;;;;;;5057967;28;20220;-81
2023/04/17 07:18:49;;;;;;;3.83;3.30;;;;;;;;;;5057307;28;20206;-82
2023/04/17 07:21:16;;;;;;;3.40;3.20;;;;;;;;;;5070608;28;20682;-82
2023/04/17 07:23:43;;;;;;;3.73;3.30;;;;;;;;;;5069132;28;20233;-81
2023/04/17 07:26:12;;;;;;;4.40;4.10;;;;;;;;;;5050340;28;20205;-81
2023/04/17 07:28:39;;;;;;;4.07;3.60;;;;;;;;;;5039675;28;20199;-81
2023/04/17 07:31:07;;;;;;;3.93;3.23;;;;;;;;;;5070546;28;20220;-80
2023/04/17 07:33:35;;;;;;;3.80;3.50;;;;;;;;;;5056219;28;20210;-81
2023/04/17 07:36:02;;;;;;;3.10;2.90;;;;;;;;;;5060712;28;20261;-82
2023/04/17 07:38:31;;;;;;;3.50;3.30;;;;;;;;;;5054190;28;20205;-81
2023/04/17 07:40:58;;;;;;;3.23;3.03;;;;;;;;;;5057177;28;20213;-81
2023/04/17 07:43:26;;;;;;;3.90;3.60;;;;;;;;;;5058013;28;20205;-82
2023/04/17 07:45:53;;;;;;;4.87;4.57;;;;;;;;;;5054830;28;20217;-80
2023/04/17 07:48:22;;;;;;;5.83;5.33;;;;;;;;;;5057262;28;20220;-83
2023/04/17 07:50:49;;;;;;;6.33;5.83;;;;;;;;;;5036078;28;20266;-82
2023/04/17 07:53:16;;;;;;;12.67;11.27;;;;;;;;;;5058203;28;20220;-83
2023/04/17 07:55:43;;;;;;;6.43;5.93;;;;;;;;;;5063294;28;20758;-83
2023/04/17 07:58:10;;;;;;;5.17;4.77;;;;;;;;;;5050247;28;20202;-82
2023/04/17 08:00:38;;;;;;;6.13;5.73;;;;;;;;;;5052987;28;20273;-81
2023/04/17 08:03:06;;;;;;;6.30;5.80;;;;;;;;;;5059203;28;20213;-82
2023/04/17 08:05:33;;;;;;;7.00;6.40;;;;;;;;;;5069314;28;20247;-81
2023/04/17 08:08:00;;;;;;;6.50;6.00;;;;;;;;;;5074281;28;20201;-81
2023/04/17 08:10:27;;;;;;;5.23;4.83;;;;;;;;;;5061222;28;20209;-81
2023/04/17 08:12:54;;;;;;;4.93;4.47;;;;;;;;;;5067153;28;20238;-82
2023/04/17 08:15:20;;;;;;;3.40;3.20;;;;;;;;;;5066930;28;20281;-79
2023/04/17 08:17:52;;;;;;;13.43;8.90;;;;;;;;;;5033924;28;20195;-81
2023/04/17 08:20:19;;;;;;;4.87;4.37;;;;;;;;;;5047824;28;20234;-80
2023/04/17 08:22:54;;;;;;;14.10;9.47;;;;;;;;;;5059109;28;20205;-81
2023/04/17 08:25:21;;;;;;;26.27;20.13;;;;;;;;;;5072738;28;20710;-81
2023/04/17 08:27:49;;;;;;;16.57;13.93;;;;;;;;;;5060915;28;20209;-81
2023/04/17 08:30:19;;;;;;;17.03;13.00;;;;;;;;;;5073214;28;20204;-83
2023/04/17 08:32:47;;;;;;;7.43;6.63;;;;;;;;;;5066103;28;20236;-83
2023/04/17 08:35:16;;;;;;;7.20;6.57;;;;;;;;;;5067058;28;20235;-84
2023/04/17 08:37:45;;;;;;;6.37;5.73;;;;;;;;;;5059347;28;20617;-82
2023/04/17 08:40:12;;;;;;;4.80;4.37;;;;;;;;;;5064382;28;20201;-81
2023/04/17 08:42:40;;;;;;;20.33;13.97;;;;;;;;;;5059695;28;20212;-83
2023/04/17 08:45:09;;;;;;;13.40;11.27;;;;;;;;;;5062097;28;20209;-82
2023/04/17 08:47:38;;;;;;;18.07;14.13;;;;;;;;;;5066854;28;20206;-82
2023/04/17 08:50:10;;;;;;;12.67;11.33;;;;;;;;;;5053107;28;20202;-83
2023/04/17 08:52:42;;;;;;;13.33;11.23;;;;;;;;;;5066884;28;20205;-82
2023/04/17 08:55:10;;;;;;;11.23;9.50;;;;;;;;;;5065276;28;20232;-83
2023/04/17 08:57:53;;;;;;;10.43;9.10;;;;;;;;;;5061946;28;20211;-83
2023/04/17 09:00:26;;;;;;;8.73;7.80;;;;;;;;;;5061556;28;20287;-84
2023/04/17 09:02:54;;;;;;;10.03;7.87;;;;;;;;;;5064813;28;20296;-82
2023/04/17 09:05:21;;;;;;;52.20;30.17;;;;;;;;;;5067591;28;20205;-82
2023/04/17 09:07:50;;;;;;;9.10;8.20;;;;;;;;;;5065567;28;20213;-82
2023/04/17 09:10:17;;;;;;;20.20;15.77;;;;;;;;;;5059991;28;20212;-82
2023/04/17 09:12:59;;;;;;;6.47;5.97;;;;;;;;;;5072712;28;20584;-81
2023/04/17 09:15:26;;;;;;;3.47;3.20;;;;;;;;;;5041593;28;20275;-84
2023/04/17 09:17:52;;;;;;;5.40;5.00;;;;;;;;;;5054422;28;20202;-84
2023/04/17 09:20:21;;;;;;;5.80;5.33;;;;;;;;;;5073154;28;20607;-84
2023/04/17 09:22:59;;;;;;;5.47;4.97;;;;;;;;;;5073377;28;20240;-81
2023/04/17 09:25:26;;;;;;;4.00;3.70;;;;;;;;;;5062183;28;20205;-84
2023/04/17 09:27:53;;;;;;;3.83;3.40;;;;;;;;;;5058165;28;20676;-84
2023/04/17 09:30:21;;;;;;;4.23;3.93;;;;;;;;;;5070770;28;20208;-84
2023/04/17 09:32:50;;;;;;;4.23;3.23;;;;;;;;;;5060916;28;20225;-83
2023/04/17 09:35:25;;;;;;;4.00;3.70;;;;;;;;;;5065761;28;20252;-83
2023/04/17 09:37:55;;;;;;;14.73;10.23;;;;;;;;;;5052850;28;20213;-83
2023/04/17 09:40:23;;;;;;;4.87;4.40;;;;;;;;;;5064955;28;20204;-84
2023/04/17 09:42:58;;;;;;;4.30;3.90;;;;;;;;;;5066245;28;20297;-84
2023/04/17 09:45:28;;;;;;;4.77;4.40;;;;;;;;;;5053501;28;20264;-83
2023/04/17 09:47:55;;;;;;;5.80;5.37;;;;;;;;;;5064683;28;20263;-84
2023/04/17 09:50:25;;;;;;;5.33;4.87;;;;;;;;;;5065828;28;20293;-84
2023/04/17 09:52:55;;;;;;;4.80;4.50;;;;;;;;;;5061838;28;20216;-83
2023/04/17 09:55:23;;;;;;;4.30;3.90;;;;;;;;;;5072420;28;20236;-84
2023/04/17 09:57:51;;;;;;;3.77;3.57;;;;;;;;;;5061491;28;20212;-84
2023/04/17 10:00:19;;;;;;;4.07;3.77;;;;;;;;;;5068756;28;20205;-84
2023/04/17 10:02:50;;;;;;;4.17;3.87;;;;;;;;;;5061618;28;20216;-84
2023/04/17 10:05:18;;;;;;;2.77;2.57;;;;;;;;;;5050767;28;20692;-83
2023/04/17 10:07:45;;;;;;;3.03;2.83;;;;;;;;;;5063317;28;20201;-84
2023/04/17 10:10:22;;;;;;;3.00;2.80;;;;;;;;;;5068359;28;20666;-82
2023/04/17 10:12:51;;;;;;;3.53;3.23;;;;;;;;;;5061790;28;20252;-81
2023/04/17 10:15:19;;;;;;;3.67;3.30;;;;;;;;;;5068934;28;20229;-81
2023/04/17 10:17:47;;;;;;;3.03;2.80;;;;;;;;;;5071587;28;20212;-81
2023/04/17 10:20:34;;;;;;;4.43;3.30;;;;;;;;;;5054021;28;20209;-83
2023/04/17 10:23:30;;;;;;;3.00;2.80;;;;;;;;;;5064370;28;20216;-83
2023/04/17 10:26:37;;;;;;;3.03;2.70;;;;;;;;;;5052781;28;20296;-83
2023/04/17 10:29:06;;;;;;;3.43;2.90;;;;;;;;;;5030811;28;20752;-86
2023/04/17 10:32:15;;;;;;;3.23;3.03;;;;;;;;;;5058576;28;20194;-86
2023/04/17 10:34:42;;;;;;;2.90;2.70;;;;;;;;;;4999592;28;20724;-85
2023/04/17 10:37:14;;;;;;;8.37;7.67;;;;;;;;;;5062028;28;20644;-85
2023/04/17 10:39:55;;;;;;;3.67;3.37;;;;;;;;;;5045748;28;20481;-85
2023/04/17 10:42:24;;;;;;;3.13;2.93;;;;;;;;;;5058444;28;20206;-86
2023/04/17 10:44:58;;;;;;;5.70;4.97;;;;;;;;;;5071177;28;20270;-86
2023/04/17 10:47:30;;;;;;;3.73;3.43;;;;;;;;;;5067866;28;20633;-85
2023/04/17 10:49:58;;;;;;;4.80;3.87;;;;;;;;;;5062972;28;20216;-85
2023/04/17 10:52:39;;;;;;;4.23;3.93;;;;;;;;;;5071255;28;20671;-85
2023/04/17 10:55:06;;;;;;;5.00;4.60;;;;;;;;;;5057964;28;20213;-86
2023/04/17 10:57:52;;;;;;;3.53;3.30;;;;;;;;;;5063785;28;20288;-85
2023/04/17 11:00:28;;;;;;;3.70;3.40;;;;;;;;;;5063617;28;20219;-86
2023/04/17 11:02:56;;;;;;;3.10;2.90;;;;;;;;;;5063779;28;20232;-85
2023/04/17 11:05:24;;;;;;;3.87;2.90;;;;;;;;;;5070486;28;20567;-86
2023/04/17 11:07:51;;;;;;;3.00;2.80;;;;;;;;;;5059143;28;20214;-86
2023/04/17 11:10:19;;;;;;;4.07;3.67;;;;;;;;;;5065364;28;20198;-86
2023/04/17 11:12:47;;;;;;;3.80;3.50;;;;;;;;;;5064891;28;20626;-86
2023/04/17 11:15:15;;;;;;;4.47;4.07;;;;;;;;;;5038526;28;20672;-89
2023/04/17 11:17:49;;;;;;;3.43;3.13;;;;;;;;;;5052573;28;20284;-86
2023/04/17 11:20:22;;;;;;;2.97;2.77;;;;;;;;;;5062930;28;20212;-87
2023/04/17 11:22:49;;;;;;;4.63;3.27;;;;;;;;;;5053125;28;20224;-86
2023/04/17 11:25:21;;;;;;;3.90;3.60;;;;;;;;;;5062093;28;20225;-85
2023/04/17 11:27:51;;;;;;;4.33;3.93;;;;;;;;;;5064082;28;20213;-86
2023/04/17 11:30:26;;;;;;;4.40;4.00;;;;;;;;;;5044832;28;20201;-87
2023/04/17 11:32:54;;;;;;;3.83;3.50;;;;;;;;;;5063788;28;20763;-85
2023/04/17 11:35:27;;;;;;;3.90;3.60;;;;;;;;;;5059937;28;20231;-82
2023/04/17 11:38:16;;;;;;;4.70;4.23;;;;;;;;;;5065558;28;20216;-82
2023/04/17 11:40:47;;;;;;;8.57;6.97;;;;;;;;;;5072811;28;20217;-81
2023/04/17 11:43:14;;;;;;;5.60;5.03;;;;;;;;;;5054556;28;20680;-84
2023/04/17 11:45:43;;;;;;;6.60;6.00;;;;;;;;;;5070351;28;20213;-82
2023/04/17 11:48:12;;;;;;;7.10;4.83;;;;;;;;;;5074705;28;20729;-83
2023/04/17 11:50:40;;;;;;;5.43;4.93;;;;;;;;;;5061011;28;20254;-81
2023/04/17 11:53:07;;;;;;;5.83;5.20;;;;;;;;;;5074221;28;20208;-82
2023/04/17 11:55:36;;;;;;;4.50;4.10;;;;;;;;;;5074401;28;20863;-81
2023/04/17 11:58:06;;;;;;;4.30;3.90;;;;;;;;;;5063579;28;20201;-81
2023/04/17 12:00:36;;;;;;;4.67;4.27;;;;;;;;;;5072575;28;20205;-82
2023/04/17 12:03:24;;;;;;;4.50;4.10;;;;;;;;;;5062302;28;21128;-82
2023/04/17 12:06:00;;;;;;;3.80;3.50;;;;;;;;;;5054072;28;20210;-82
2023/04/17 12:08:27;;;;;;;4.20;3.80;;;;;;;;;;5067355;28;20296;-82
2023/04/17 12:10:54;;;;;;;7.10;6.03;;;;;;;;;;5054265;28;20199;-82
2023/04/17 12:13:21;;;;;;;5.93;5.37;;;;;;;;;;5071016;28;20210;-82
2023/04/17 12:15:48;;;;;;;5.70;5.20;;;;;;;;;;5073631;28;20232;-82
2023/04/17 12:18:15;;;;;;;6.80;6.20;;;;;;;;;;5070446;28;20268;-83
2023/04/17 12:20:42;;;;;;;4.93;4.40;;;;;;;;;;5064987;28;20216;-81
2023/04/17 12:23:10;;;;;;;4.27;3.73;;;;;;;;;;5060394;28;20210;-82
2023/04/17 12:25:37;;;;;;;6.00;4.60;;;;;;;;;;5062609;28;20206;-81
2023/04/17 12:28:07;;;;;;;5.50;5.00;;;;;;;;;;5072096;28;20205;-81
2023/04/17 12:30:34;;;;;;;6.10;5.60;;;;;;;;;;5061618;28;20205;-81
2023/04/17 12:33:05;;;;;;;5.83;5.17;;;;;;;;;;5061498;28;20696;-81
2023/04/17 12:35:32;;;;;;;6.87;6.20;;;;;;;;;;5047089;28;20699;-81
2023/04/17 12:37:59;;;;;;;6.17;5.57;;;;;;;;;;5067372;28;20691;-81
2023/04/17 12:40:37;;;;;;;6.03;5.53;;;;;;;;;;5066812;28;20204;-81
2023/04/17 12:43:07;;;;;;;20.83;14.97;;;;;;;;;;5049543;28;20584;-81
2023/04/17 12:45:35;;;;;;;13.93;11.73;;;;;;;;;;5072578;28;20208;-81
2023/04/17 12:48:02;;;;;;;18.67;16.83;;;;;;;;;;5073490;28;20201;-81
2023/04/17 12:50:32;;;;;;;18.70;16.73;;;;;;;;;;5068720;28;20562;-81
2023/04/17 12:53:05;;;;;;;9.50;8.60;;;;;;;;;;5072620;28;21031;-82
2023/04/17 12:56:16;;;;;;;15.53;11.10;;;;;;;;;;5059539;28;20259;-82
2023/04/17 13:02:06;;;;;;;5.90;5.40;;;;;;;;;;4978956;28;20729;-80
2023/04/17 13:04:32;;;;;;;7.73;5.90;;;;;;;;;;4975989;28;20224;-81
2023/04/17 13:06:59;;;;;;;5.17;4.73;;;;;;;;;;5008006;28;20218;-82
2023/04/17 13:09:26;;;;;;;4.53;4.23;;;;;;;;;;5050772;28;20206;-81
2023/04/17 13:11:54;;;;;;;3.90;3.60;;;;;;;;;;5050714;28;20202;-80
2023/04/17 13:14:21;;;;;;;6.73;6.23;;;;;;;;;;5050227;28;20198;-81
2023/04/17 13:16:50;;;;;;;4.10;3.80;;;;;;;;;;5050402;28;20712;-81
2023/04/17 13:19:17;;;;;;;4.10;3.80;;;;;;;;;;5050605;28;20213;-81
2023/04/17 13:21:43;;;;;;;3.90;3.57;;;;;;;;;;5043659;28;20210;-80
2023/04/17 13:24:13;;;;;;;4.40;4.10;;;;;;;;;;5044046;28;20234;-80
2023/04/17 13:26:40;;;;;;;4.70;3.77;;;;;;;;;;5047096;28;20315;-80
2023/04/17 13:29:08;;;;;;;2.07;1.97;;;;;;;;;;5066079;28;20224;-81
2023/04/17 13:31:38;;;;;;;2.23;1.67;;;;;;;;;;5061175;28;20209;-79
2023/04/17 13:34:06;;;;;;;5.53;4.90;;;;;;;;;;5058854;28;20221;-80
2023/04/17 13:36:34;;;;;;;5.70;5.10;;;;;;;;;;5061781;28;20228;-80
2023/04/17 13:39:01;;;;;;;3.70;3.00;;;;;;;;;;5049245;28;20202;-81
2023/04/17 13:41:28;;;;;;;3.67;3.37;;;;;;;;;;5065841;28;20237;-80
2023/04/17 13:43:55;;;;;;;3.33;3.13;;;;;;;;;;5059770;28;20263;-82
2023/04/17 13:46:23;;;;;;;3.53;3.33;;;;;;;;;;5071299;28;20201;-81
2023/04/17 13:48:50;;;;;;;11.63;9.57;;;;;;;;;;5060312;28;20628;-83
2023/04/17 13:51:17;;;;;;;5.53;5.03;;;;;;;;;;5065280;28;20205;-80
2023/04/17 13:53:44;;;;;;;7.00;4.73;;;;;;;;;;5053825;28;20260;-80
2023/04/17 13:56:10;;;;;;;5.80;4.50;;;;;;;;;;5053091;28;20214;-80
2023/04/17 13:58:39;;;;;;;6.00;5.40;;;;;;;;;;5054679;28;20641;-80
2023/04/17 14:01:06;;;;;;;7.60;6.90;;;;;;;;;;5066282;28;20710;-80
2023/04/17 14:03:41;;;;;;;7.87;7.17;;;;;;;;;;5063694;28;20251;-80
2023/04/17 14:06:09;;;;;;;5.73;5.23;;;;;;;;;;5065561;28;20220;-80
2023/04/17 14:08:38;;;;;;;6.80;6.20;;;;;;;;;;5051876;28;20209;-81
2023/04/17 14:11:05;;;;;;;6.30;5.70;;;;;;;;;;5059036;28;20209;-79
2023/04/17 14:13:32;;;;;;;6.97;6.33;;;;;;;;;;5058294;28;20232;-80
2023/04/17 14:15:59;;;;;;;8.07;7.30;;;;;;;;;;5064219;28;20229;-80
2023/04/17 14:18:26;;;;;;;6.90;6.30;;;;;;;;;;5052160;28;20202;-80
2023/04/17 14:20:54;;;;;;;10.83;9.73;;;;;;;;;;5058988;28;20213;-80
2023/04/17 14:23:21;;;;;;;9.20;8.30;;;;;;;;;;5070811;28;20294;-80
2023/04/17 14:25:49;;;;;;;7.20;6.60;;;;;;;;;;5063501;28;20214;-80
2023/04/17 14:28:17;;;;;;;6.07;5.43;;;;;;;;;;5064807;28;20208;-81
2023/04/17 14:30:44;;;;;;;4.83;4.53;;;;;;;;;;5051692;28;20202;-80
2023/04/17 14:33:10;;;;;;;7.50;6.83;;;;;;;;;;5067149;28;20208;-80
2023/04/17 14:35:38;;;;;;;5.67;5.17;;;;;;;;;;5071536;28;20213;-80
2023/04/17 14:38:07;;;;;;;6.23;5.63;;;;;;;;;;5062553;28;20649;-80
2023/04/17 14:40:34;;;;;;;9.60;8.60;;;;;;;;;;5057958;28;20207;-80
2023/04/17 14:43:04;;;;;;;10.80;8.40;;;;;;;;;;5071523;28;20208;-79
2023/04/17 14:45:31;;;;;;;10.37;7.90;;;;;;;;;;5070220;28;20197;-80
2023/04/17 14:47:57;;;;;;;7.30;6.03;;;;;;;;;;5059030;28;20691;-80
2023/04/17 14:50:24;;;;;;;7.00;6.40;;;;;;;;;;5071066;28;20216;-80
2023/04/17 14:52:52;;;;;;;5.97;5.37;;;;;;;;;;5063106;28;20210;-79
2023/04/17 14:55:21;;;;;;;6.93;6.23;;;;;;;;;;5053660;28;20264;-80
2023/04/17 14:57:48;;;;;;;6.30;5.23;;;;;;;;;;5070869;28;20764;-80
2023/04/17 15:00:16;;;;;;;3.97;3.67;;;;;;;;;;5057981;28;20212;-80
2023/04/17 15:02:43;;;;;;;3.80;3.50;;;;;;;;;;5071555;28;20212;-80
2023/04/17 15:05:10;;;;;;;5.90;3.83;;;;;;;;;;5057380;28;20205;-80
2023/04/17 15:07:37;;;;;;;5.63;3.63;;;;;;;;;;5061241;28;20202;-80
2023/04/17 15:10:04;;;;;;;4.97;4.57;;;;;;;;;;5060897;28;20262;-81